sensor_id;sensor_type;location;lat;lon;timestamp;P1;durP1;ratioP1;P2;durP2;ratioP2
15061;SDS011;7630;50.306;8.566;2023-04-24T00:01:10;3.13;;;2.93;;
15061;SDS011;7630;50.306;8.566;2023-04-24T00:05:14;2.87;;;2.77;;
15061;SDS011;7630;50.306;8.566;2023-04-24T00:09:15;3.53;;;3.17;;
15061;SDS011;7630;50.306;8.566;2023-04-24T00:13:16;3.90;;;3.57;;
15061;SDS011;7630;50.306;8.566;2023-04-24T00:17:17;3.47;;;3.27;;
15061;SDS011;7630;50.306;8.566;2023-04-24T00:21:22;4.30;;;4.00;;
15061;SDS011;7630;50.306;8.566;2023-04-24T00:25:25;5.67;;;5.17;;
15061;SDS011;7630;50.306;8.566;2023-04-24T00:29:26;8.83;;;4.60;;
15061;SDS011;7630;50.306;8.566;2023-04-24T00:33:27;5.30;;;4.90;;
15061;SDS011;7630;50.306;8.566;2023-04-24T00:37:29;4.50;;;4.20;;
15061;SDS011;7630;50.306;8.566;2023-04-24T00:41:30;4.67;;;4.27;;
15061;SDS011;7630;50.306;8.566;2023-04-24T00:45:31;4.30;;;3.97;;
15061;SDS011;7630;50.306;8.566;2023-04-24T00:49:32;7.70;;;3.93;;
15061;SDS011;7630;50.306;8.566;2023-04-24T00:53:33;4.00;;;3.40;;
15061;SDS011;7630;50.306;8.566;2023-04-24T00:57:34;4.47;;;4.03;;
15061;SDS011;7630;50.306;8.566;2023-04-24T01:01:36;4.03;;;3.73;;
15061;SDS011;7630;50.306;8.566;2023-04-24T01:05:37;7.80;;;4.33;;
15061;SDS011;7630;50.306;8.566;2023-04-24T01:09:39;5.87;;;4.50;;
15061;SDS011;7630;50.306;8.566;2023-04-24T01:13:42;4.33;;;3.93;;
15061;SDS011;7630;50.306;8.566;2023-04-24T01:17:44;4.70;;;4.30;;
15061;SDS011;7630;50.306;8.566;2023-04-24T01:21:45;4.97;;;4.17;;
15061;SDS011;7630;50.306;8.566;2023-04-24T01:25:49;5.17;;;4.73;;
15061;SDS011;7630;50.306;8.566;2023-04-24T01:29:50;6.53;;;6.03;;
15061;SDS011;7630;50.306;8.566;2023-04-24T01:33:52;6.47;;;5.03;;
15061;SDS011;7630;50.306;8.566;2023-04-24T01:37:55;6.37;;;5.73;;
15061;SDS011;7630;50.306;8.566;2023-04-24T01:41:56;7.07;;;6.50;;
15061;SDS011;7630;50.306;8.566;2023-04-24T01:45:57;8.10;;;7.50;;
15061;SDS011;7630;50.306;8.566;2023-04-24T01:49:58;7.77;;;7.27;;
15061;SDS011;7630;50.306;8.566;2023-04-24T01:54:00;9.40;;;8.53;;
15061;SDS011;7630;50.306;8.566;2023-04-24T01:58:01;11.73;;;10.77;;
15061;SDS011;7630;50.306;8.566;2023-04-24T02:02:03;10.00;;;9.03;;
15061;SDS011;7630;50.306;8.566;2023-04-24T02:06:04;10.63;;;9.23;;
15061;SDS011;7630;50.306;8.566;2023-04-24T02:10:06;9.03;;;8.23;;
15061;SDS011;7630;50.306;8.566;2023-04-24T02:14:07;10.33;;;9.43;;
15061;SDS011;7630;50.306;8.566;2023-04-24T02:18:09;8.53;;;7.73;;
15061;SDS011;7630;50.306;8.566;2023-04-24T02:22:10;9.17;;;8.47;;
15061;SDS011;7630;50.306;8.566;2023-04-24T02:26:11;9.40;;;8.60;;
15061;SDS011;7630;50.306;8.566;2023-04-24T02:30:13;8.60;;;8.00;;
15061;SDS011;7630;50.306;8.566;2023-04-24T02:34:14;6.00;;;5.47;;
15061;SDS011;7630;50.306;8.566;2023-04-24T02:38:17;3.40;;;3.10;;
15061;SDS011;7630;50.306;8.566;2023-04-24T02:42:18;2.60;;;2.40;;
15061;SDS011;7630;50.306;8.566;2023-04-24T02:46:19;2.47;;;2.30;;
15061;SDS011;7630;50.306;8.566;2023-04-24T02:50:20;3.00;;;2.70;;
15061;SDS011;7630;50.306;8.566;2023-04-24T02:54:21;2.93;;;2.73;;
15061;SDS011;7630;50.306;8.566;2023-04-24T02:58:22;2.70;;;2.60;;
15061;SDS011;7630;50.306;8.566;2023-04-24T03:02:23;2.53;;;2.43;;
15061;SDS011;7630;50.306;8.566;2023-04-24T03:06:25;3.23;;;2.97;;
15061;SDS011;7630;50.306;8.566;2023-04-24T03:10:27;3.03;;;2.83;;
15061;SDS011;7630;50.306;8.566;2023-04-24T03:14:28;3.70;;;3.50;;
15061;SDS011;7630;50.306;8.566;2023-04-24T03:18:34;3.33;;;3.13;;
15061;SDS011;7630;50.306;8.566;2023-04-24T03:22:35;3.33;;;3.13;;
15061;SDS011;7630;50.306;8.566;2023-04-24T03:26:36;4.40;;;3.23;;
15061;SDS011;7630;50.306;8.566;2023-04-24T03:30:37;7.17;;;4.10;;
15061;SDS011;7630;50.306;8.566;2023-04-24T03:34:39;3.47;;;3.27;;
15061;SDS011;7630;50.306;8.566;2023-04-24T03:38:40;4.17;;;3.87;;
15061;SDS011;7630;50.306;8.566;2023-04-24T03:42:41;4.30;;;4.03;;
15061;SDS011;7630;50.306;8.566;2023-04-24T03:46:42;4.20;;;3.90;;
15061;SDS011;7630;50.306;8.566;2023-04-24T03:50:43;4.20;;;3.37;;
15061;SDS011;7630;50.306;8.566;2023-04-24T03:54:45;4.73;;;4.33;;
15061;SDS011;7630;50.306;8.566;2023-04-24T03:58:46;4.37;;;4.07;;
15061;SDS011;7630;50.306;8.566;2023-04-24T04:02:47;3.53;;;3.33;;
15061;SDS011;7630;50.306;8.566;2023-04-24T04:06:48;5.03;;;4.30;;
15061;SDS011;7630;50.306;8.566;2023-04-24T04:10:50;4.17;;;3.87;;
15061;SDS011;7630;50.306;8.566;2023-04-24T04:14:51;3.70;;;3.40;;
15061;SDS011;7630;50.306;8.566;2023-04-24T04:18:52;4.10;;;3.80;;
15061;SDS011;7630;50.306;8.566;2023-04-24T04:22:53;4.20;;;3.90;;
15061;SDS011;7630;50.306;8.566;2023-04-24T04:26:54;4.63;;;4.20;;
15061;SDS011;7630;50.306;8.566;2023-04-24T04:30:57;4.77;;;4.37;;
15061;SDS011;7630;50.306;8.566;2023-04-24T04:34:58;4.77;;;4.37;;
15061;SDS011;7630;50.306;8.566;2023-04-24T04:39:02;4.77;;;4.47;;
15061;SDS011;7630;50.306;8.566;2023-04-24T04:43:04;4.30;;;4.00;;
15061;SDS011;7630;50.306;8.566;2023-04-24T04:47:06;4.90;;;4.40;;
15061;SDS011;7630;50.306;8.566;2023-04-24T04:51:09;3.77;;;3.50;;
15061;SDS011;7630;50.306;8.566;2023-04-24T04:55:10;4.53;;;4.13;;
15061;SDS011;7630;50.306;8.566;2023-04-24T04:59:13;4.17;;;3.97;;
15061;SDS011;7630;50.306;8.566;2023-04-24T05:03:14;4.20;;;3.90;;
15061;SDS011;7630;50.306;8.566;2023-04-24T05:07:17;4.37;;;4.07;;
15061;SDS011;7630;50.306;8.566;2023-04-24T05:11:19;5.60;;;5.10;;
15061;SDS011;7630;50.306;8.566;2023-04-24T05:15:20;4.20;;;3.90;;
15061;SDS011;7630;50.306;8.566;2023-04-24T05:19:21;3.80;;;3.60;;
15061;SDS011;7630;50.306;8.566;2023-04-24T05:23:22;4.80;;;4.50;;
15061;SDS011;7630;50.306;8.566;2023-04-24T05:27:23;5.03;;;4.73;;
15061;SDS011;7630;50.306;8.566;2023-04-24T05:31:25;4.23;;;3.93;;
15061;SDS011;7630;50.306;8.566;2023-04-24T05:35:27;3.90;;;3.70;;
15061;SDS011;7630;50.306;8.566;2023-04-24T05:39:27;4.27;;;3.97;;
15061;SDS011;7630;50.306;8.566;2023-04-24T05:43:29;4.63;;;4.23;;
15061;SDS011;7630;50.306;8.566;2023-04-24T05:47:30;4.73;;;4.27;;
15061;SDS011;7630;50.306;8.566;2023-04-24T05:51:31;4.57;;;4.17;;
15061;SDS011;7630;50.306;8.566;2023-04-24T05:55:32;5.90;;;4.20;;
15061;SDS011;7630;50.306;8.566;2023-04-24T05:59:33;5.03;;;4.27;;
15061;SDS011;7630;50.306;8.566;2023-04-24T06:03:37;5.00;;;4.60;;
15061;SDS011;7630;50.306;8.566;2023-04-24T06:07:40;5.80;;;4.73;;
15061;SDS011;7630;50.306;8.566;2023-04-24T06:11:41;5.33;;;4.93;;
15061;SDS011;7630;50.306;8.566;2023-04-24T06:15:43;6.87;;;6.30;;
15061;SDS011;7630;50.306;8.566;2023-04-24T06:19:45;6.10;;;5.60;;
15061;SDS011;7630;50.306;8.566;2023-04-24T06:23:46;7.23;;;6.67;;
15061;SDS011;7630;50.306;8.566;2023-04-24T06:27:48;7.10;;;6.60;;
15061;SDS011;7630;50.306;8.566;2023-04-24T06:31:49;6.17;;;5.67;;
15061;SDS011;7630;50.306;8.566;2023-04-24T06:35:50;7.20;;;6.60;;
15061;SDS011;7630;50.306;8.566;2023-04-24T06:39:51;9.03;;;8.23;;
15061;SDS011;7630;50.306;8.566;2023-04-24T06:43:52;8.70;;;7.80;;
15061;SDS011;7630;50.306;8.566;2023-04-24T06:47:53;8.57;;;7.33;;
15061;SDS011;7630;50.306;8.566;2023-04-24T06:51:54;8.23;;;7.53;;
15061;SDS011;7630;50.306;8.566;2023-04-24T06:55:56;8.20;;;7.60;;
15061;SDS011;7630;50.306;8.566;2023-04-24T06:59:57;8.67;;;7.87;;
15061;SDS011;7630;50.306;8.566;2023-04-24T07:03:59;8.20;;;7.40;;
15061;SDS011;7630;50.306;8.566;2023-04-24T07:08:01;6.97;;;6.37;;
15061;SDS011;7630;50.306;8.566;2023-04-24T07:12:03;7.60;;;6.90;;
15061;SDS011;7630;50.306;8.566;2023-04-24T07:16:04;6.97;;;6.27;;
15061;SDS011;7630;50.306;8.566;2023-04-24T07:20:06;6.03;;;5.63;;
15061;SDS011;7630;50.306;8.566;2023-04-24T07:24:10;6.97;;;6.47;;
15061;SDS011;7630;50.306;8.566;2023-04-24T07:28:12;7.67;;;6.40;;
15061;SDS011;7630;50.306;8.566;2023-04-24T07:32:13;5.90;;;5.17;;
15061;SDS011;7630;50.306;8.566;2023-04-24T07:36:15;5.27;;;4.87;;
15061;SDS011;7630;50.306;8.566;2023-04-24T07:40:17;4.90;;;4.60;;
15061;SDS011;7630;50.306;8.566;2023-04-24T07:44:19;4.80;;;4.47;;
15061;SDS011;7630;50.306;8.566;2023-04-24T07:48:20;5.73;;;5.27;;
15061;SDS011;7630;50.306;8.566;2023-04-24T07:52:23;5.40;;;4.63;;
15061;SDS011;7630;50.306;8.566;2023-04-24T07:56:24;4.23;;;3.80;;
15061;SDS011;7630;50.306;8.566;2023-04-24T08:00:28;4.60;;;4.30;;
15061;SDS011;7630;50.306;8.566;2023-04-24T08:04:29;4.83;;;4.53;;
15061;SDS011;7630;50.306;8.566;2023-04-24T08:08:30;5.20;;;4.60;;
15061;SDS011;7630;50.306;8.566;2023-04-24T08:12:31;4.80;;;4.40;;
15061;SDS011;7630;50.306;8.566;2023-04-24T08:16:32;4.93;;;4.43;;
15061;SDS011;7630;50.306;8.566;2023-04-24T08:20:34;4.90;;;4.50;;
15061;SDS011;7630;50.306;8.566;2023-04-24T08:24:35;5.20;;;4.80;;
15061;SDS011;7630;50.306;8.566;2023-04-24T08:28:37;5.90;;;5.40;;
15061;SDS011;7630;50.306;8.566;2023-04-24T08:32:39;4.70;;;4.30;;
15061;SDS011;7630;50.306;8.566;2023-04-24T08:36:40;4.73;;;4.43;;
15061;SDS011;7630;50.306;8.566;2023-04-24T08:40:43;4.60;;;4.30;;
15061;SDS011;7630;50.306;8.566;2023-04-24T08:44:47;4.10;;;3.80;;
15061;SDS011;7630;50.306;8.566;2023-04-24T08:48:50;5.00;;;4.70;;
15061;SDS011;7630;50.306;8.566;2023-04-24T08:52:52;4.50;;;4.10;;
15061;SDS011;7630;50.306;8.566;2023-04-24T08:56:54;4.23;;;3.93;;
15061;SDS011;7630;50.306;8.566;2023-04-24T09:00:59;4.40;;;4.00;;
15061;SDS011;7630;50.306;8.566;2023-04-24T09:05:01;4.00;;;3.70;;
15061;SDS011;7630;50.306;8.566;2023-04-24T09:09:04;3.93;;;3.63;;
15061;SDS011;7630;50.306;8.566;2023-04-24T09:13:06;3.90;;;3.60;;
15061;SDS011;7630;50.306;8.566;2023-04-24T09:17:09;3.83;;;3.53;;
15061;SDS011;7630;50.306;8.566;2023-04-24T09:21:10;3.57;;;3.37;;
15061;SDS011;7630;50.306;8.566;2023-04-24T09:25:12;3.60;;;3.37;;
15061;SDS011;7630;50.306;8.566;2023-04-24T09:29:14;4.10;;;3.30;;
15061;SDS011;7630;50.306;8.566;2023-04-24T09:33:17;3.17;;;2.57;;
15061;SDS011;7630;50.306;8.566;2023-04-24T09:37:28;3.27;;;3.07;;
15061;SDS011;7630;50.306;8.566;2023-04-24T09:41:31;3.03;;;2.83;;
15061;SDS011;7630;50.306;8.566;2023-04-24T09:45:37;3.00;;;2.90;;
15061;SDS011;7630;50.306;8.566;2023-04-24T09:49:40;2.40;;;2.20;;
15061;SDS011;7630;50.306;8.566;2023-04-24T09:53:45;3.30;;;3.10;;
15061;SDS011;7630;50.306;8.566;2023-04-24T09:57:55;3.80;;;2.97;;
15061;SDS011;7630;50.306;8.566;2023-04-24T10:01:57;2.87;;;2.67;;
15061;SDS011;7630;50.306;8.566;2023-04-24T10:06:01;2.50;;;2.30;;
15061;SDS011;7630;50.306;8.566;2023-04-24T10:10:04;2.20;;;2.00;;
15061;SDS011;7630;50.306;8.566;2023-04-24T10:14:06;2.10;;;1.87;;
15061;SDS011;7630;50.306;8.566;2023-04-24T10:18:11;3.20;;;2.60;;
15061;SDS011;7630;50.306;8.566;2023-04-24T10:22:12;2.67;;;2.47;;
15061;SDS011;7630;50.306;8.566;2023-04-24T10:26:16;2.17;;;2.07;;
15061;SDS011;7630;50.306;8.566;2023-04-24T10:30:18;2.57;;;2.40;;
15061;SDS011;7630;50.306;8.566;2023-04-24T10:34:20;2.27;;;2.17;;
15061;SDS011;7630;50.306;8.566;2023-04-24T10:38:28;1.70;;;1.60;;
15061;SDS011;7630;50.306;8.566;2023-04-24T10:42:28;1.83;;;1.73;;
15061;SDS011;7630;50.306;8.566;2023-04-24T10:46:29;1.67;;;1.57;;
15061;SDS011;7630;50.306;8.566;2023-04-24T10:50:44;1.60;;;1.50;;
15061;SDS011;7630;50.306;8.566;2023-04-24T10:54:50;1.20;;;1.20;;
15061;SDS011;7630;50.306;8.566;2023-04-24T10:58:53;1.97;;;1.80;;
15061;SDS011;7630;50.306;8.566;2023-04-24T11:02:54;2.40;;;2.20;;
15061;SDS011;7630;50.306;8.566;2023-04-24T11:06:56;3.10;;;2.90;;
15061;SDS011;7630;50.306;8.566;2023-04-24T11:10:59;4.63;;;2.70;;
15061;SDS011;7630;50.306;8.566;2023-04-24T11:15:02;2.93;;;2.73;;
15061;SDS011;7630;50.306;8.566;2023-04-24T11:23:18;3.10;;;2.90;;
15061;SDS011;7630;50.306;8.566;2023-04-24T11:27:21;3.37;;;3.07;;
15061;SDS011;7630;50.306;8.566;2023-04-24T11:31:39;3.83;;;3.40;;
15061;SDS011;7630;50.306;8.566;2023-04-24T11:35:42;4.73;;;3.53;;
15061;SDS011;7630;50.306;8.566;2023-04-24T11:39:43;3.33;;;3.13;;
15061;SDS011;7630;50.306;8.566;2023-04-24T11:43:45;3.50;;;3.30;;
15061;SDS011;7630;50.306;8.566;2023-04-24T11:47:47;4.83;;;4.43;;
15061;SDS011;7630;50.306;8.566;2023-04-24T11:51:48;4.80;;;4.40;;
15061;SDS011;7630;50.306;8.566;2023-04-24T11:55:51;4.50;;;4.20;;
15061;SDS011;7630;50.306;8.566;2023-04-24T11:59:52;4.67;;;4.37;;
15061;SDS011;7630;50.306;8.566;2023-04-24T12:03:58;7.27;;;4.90;;
15061;SDS011;7630;50.306;8.566;2023-04-24T12:07:59;5.17;;;4.63;;
15061;SDS011;7630;50.306;8.566;2023-04-24T12:12:00;5.07;;;4.67;;
15061;SDS011;7630;50.306;8.566;2023-04-24T12:16:02;5.73;;;4.97;;
15061;SDS011;7630;50.306;8.566;2023-04-24T12:20:06;5.70;;;5.10;;
15061;SDS011;7630;50.306;8.566;2023-04-24T12:24:08;4.90;;;4.50;;
15061;SDS011;7630;50.306;8.566;2023-04-24T12:28:10;5.87;;;5.37;;
15061;SDS011;7630;50.306;8.566;2023-04-24T12:32:16;5.10;;;4.70;;
15061;SDS011;7630;50.306;8.566;2023-04-24T12:36:17;7.20;;;5.27;;
15061;SDS011;7630;50.306;8.566;2023-04-24T12:40:21;7.73;;;6.93;;
15061;SDS011;7630;50.306;8.566;2023-04-24T12:44:31;7.93;;;7.23;;
15061;SDS011;7630;50.306;8.566;2023-04-24T12:48:35;9.67;;;8.77;;
15061;SDS011;7630;50.306;8.566;2023-04-24T12:52:36;7.13;;;6.40;;
15061;SDS011;7630;50.306;8.566;2023-04-24T12:56:39;4.93;;;4.60;;
15061;SDS011;7630;50.306;8.566;2023-04-24T13:00:40;4.20;;;3.80;;
15061;SDS011;7630;50.306;8.566;2023-04-24T13:04:44;4.73;;;4.33;;
15061;SDS011;7630;50.306;8.566;2023-04-24T13:08:47;5.00;;;4.60;;
15061;SDS011;7630;50.306;8.566;2023-04-24T13:12:49;4.43;;;4.10;;
15061;SDS011;7630;50.306;8.566;2023-04-24T13:16:50;6.20;;;5.27;;
15061;SDS011;7630;50.306;8.566;2023-04-24T13:20:52;5.40;;;5.00;;
15061;SDS011;7630;50.306;8.566;2023-04-24T13:24:53;7.70;;;5.67;;
15061;SDS011;7630;50.306;8.566;2023-04-24T13:28:55;7.33;;;6.67;;
15061;SDS011;7630;50.306;8.566;2023-04-24T13:32:56;7.77;;;7.17;;
15061;SDS011;7630;50.306;8.566;2023-04-24T13:36:57;10.67;;;8.20;;
15061;SDS011;7630;50.306;8.566;2023-04-24T13:40:59;9.13;;;8.43;;
15061;SDS011;7630;50.306;8.566;2023-04-24T13:45:01;10.23;;;9.20;;
15061;SDS011;7630;50.306;8.566;2023-04-24T13:49:04;9.43;;;8.53;;
15061;SDS011;7630;50.306;8.566;2023-04-24T13:53:05;8.00;;;7.40;;
15061;SDS011;7630;50.306;8.566;2023-04-24T13:57:06;10.03;;;8.43;;
15061;SDS011;7630;50.306;8.566;2023-04-24T14:01:07;9.30;;;8.07;;
15061;SDS011;7630;50.306;8.566;2023-04-24T14:05:09;9.53;;;8.63;;
15061;SDS011;7630;50.306;8.566;2023-04-24T14:09:11;9.43;;;6.37;;
15061;SDS011;7630;50.306;8.566;2023-04-24T14:13:13;6.50;;;5.90;;
15061;SDS011;7630;50.306;8.566;2023-04-24T14:17:15;6.93;;;6.20;;
15061;SDS011;7630;50.306;8.566;2023-04-24T14:21:16;6.87;;;6.17;;
15061;SDS011;7630;50.306;8.566;2023-04-24T14:25:17;7.43;;;6.03;;
15061;SDS011;7630;50.306;8.566;2023-04-24T14:29:18;7.03;;;6.43;;
15061;SDS011;7630;50.306;8.566;2023-04-24T14:33:20;7.53;;;6.57;;
15061;SDS011;7630;50.306;8.566;2023-04-24T14:37:21;8.63;;;7.10;;
15061;SDS011;7630;50.306;8.566;2023-04-24T14:41:22;8.67;;;7.17;;
15061;SDS011;7630;50.306;8.566;2023-04-24T14:45:24;11.80;;;8.77;;
15061;SDS011;7630;50.306;8.566;2023-04-24T14:49:25;9.83;;;8.80;;
15061;SDS011;7630;50.306;8.566;2023-04-24T14:53:26;10.17;;;9.33;;
15061;SDS011;7630;50.306;8.566;2023-04-24T14:57:28;9.93;;;9.13;;
15061;SDS011;7630;50.306;8.566;2023-04-24T15:01:30;9.80;;;8.67;;
15061;SDS011;7630;50.306;8.566;2023-04-24T15:05:31;8.73;;;7.10;;
15061;SDS011;7630;50.306;8.566;2023-04-24T15:09:32;7.90;;;7.27;;
15061;SDS011;7630;50.306;8.566;2023-04-24T15:13:34;8.40;;;7.00;;
15061;SDS011;7630;50.306;8.566;2023-04-24T15:17:35;8.27;;;7.47;;
15061;SDS011;7630;50.306;8.566;2023-04-24T15:21:36;10.37;;;7.30;;
15061;SDS011;7630;50.306;8.566;2023-04-24T15:25:38;8.47;;;7.77;;
15061;SDS011;7630;50.306;8.566;2023-04-24T15:29:39;10.07;;;8.43;;
15061;SDS011;7630;50.306;8.566;2023-04-24T15:33:40;8.37;;;7.67;;
15061;SDS011;7630;50.306;8.566;2023-04-24T15:37:42;9.50;;;7.87;;
15061;SDS011;7630;50.306;8.566;2023-04-24T15:41:43;8.63;;;6.93;;
15061;SDS011;7630;50.306;8.566;2023-04-24T15:45:44;11.03;;;8.83;;
15061;SDS011;7630;50.306;8.566;2023-04-24T15:49:45;8.60;;;7.77;;
15061;SDS011;7630;50.306;8.566;2023-04-24T15:53:46;7.83;;;7.20;;
15061;SDS011;7630;50.306;8.566;2023-04-24T15:57:48;9.60;;;6.67;;
15061;SDS011;7630;50.306;8.566;2023-04-24T16:01:49;7.23;;;6.57;;
15061;SDS011;7630;50.306;8.566;2023-04-24T16:05:51;8.07;;;7.33;;
15061;SDS011;7630;50.306;8.566;2023-04-24T16:09:53;7.43;;;6.67;;
15061;SDS011;7630;50.306;8.566;2023-04-24T16:13:54;8.77;;;8.07;;
15061;SDS011;7630;50.306;8.566;2023-04-24T16:17:55;12.47;;;8.47;;
15061;SDS011;7630;50.306;8.566;2023-04-24T16:21:57;10.07;;;9.03;;
15061;SDS011;7630;50.306;8.566;2023-04-24T16:25:58;13.17;;;11.77;;
15061;SDS011;7630;50.306;8.566;2023-04-24T16:29:59;8.80;;;7.83;;
15061;SDS011;7630;50.306;8.566;2023-04-24T16:34:00;12.97;;;11.63;;
15061;SDS011;7630;50.306;8.566;2023-04-24T16:38:03;12.77;;;10.57;;
15061;SDS011;7630;50.306;8.566;2023-04-24T16:42:05;11.27;;;8.93;;
15061;SDS011;7630;50.306;8.566;2023-04-24T16:46:06;16.63;;;12.63;;
15061;SDS011;7630;50.306;8.566;2023-04-24T16:50:08;10.60;;;9.50;;
15061;SDS011;7630;50.306;8.566;2023-04-24T16:54:09;10.83;;;9.73;;
15061;SDS011;7630;50.306;8.566;2023-04-24T16:58:11;14.60;;;13.30;;
15061;SDS011;7630;50.306;8.566;2023-04-24T17:02:12;17.67;;;15.97;;
15061;SDS011;7630;50.306;8.566;2023-04-24T17:06:13;11.13;;;10.13;;
15061;SDS011;7630;50.306;8.566;2023-04-24T17:10:15;13.67;;;12.57;;
15061;SDS011;7630;50.306;8.566;2023-04-24T17:14:16;10.93;;;9.83;;
15061;SDS011;7630;50.306;8.566;2023-04-24T17:18:17;11.07;;;10.07;;
15061;SDS011;7630;50.306;8.566;2023-04-24T17:22:18;11.77;;;10.27;;
15061;SDS011;7630;50.306;8.566;2023-04-24T17:26:20;11.30;;;10.10;;
15061;SDS011;7630;50.306;8.566;2023-04-24T17:30:25;11.83;;;10.83;;
15061;SDS011;7630;50.306;8.566;2023-04-24T17:34:37;15.37;;;13.43;;
15061;SDS011;7630;50.306;8.566;2023-04-24T17:38:38;13.23;;;11.73;;
15061;SDS011;7630;50.306;8.566;2023-04-24T17:42:39;14.37;;;12.40;;
15061;SDS011;7630;50.306;8.566;2023-04-24T17:46:42;14.13;;;11.70;;
15061;SDS011;7630;50.306;8.566;2023-04-24T17:50:43;13.03;;;11.83;;
15061;SDS011;7630;50.306;8.566;2023-04-24T17:54:45;13.87;;;12.43;;
15061;SDS011;7630;50.306;8.566;2023-04-24T17:58:46;14.27;;;13.13;;
15061;SDS011;7630;50.306;8.566;2023-04-24T18:02:50;14.93;;;13.57;;
15061;SDS011;7630;50.306;8.566;2023-04-24T18:06:53;14.27;;;12.80;;
15061;SDS011;7630;50.306;8.566;2023-04-24T18:10:54;15.93;;;14.33;;
15061;SDS011;7630;50.306;8.566;2023-04-24T18:14:55;16.93;;;13.47;;
15061;SDS011;7630;50.306;8.566;2023-04-24T18:18:58;14.83;;;13.50;;
15061;SDS011;7630;50.306;8.566;2023-04-24T18:22:59;14.93;;;13.53;;
15061;SDS011;7630;50.306;8.566;2023-04-24T18:27:02;16.57;;;14.93;;
15061;SDS011;7630;50.306;8.566;2023-04-24T18:31:03;15.47;;;14.13;;
15061;SDS011;7630;50.306;8.566;2023-04-24T18:35:07;14.13;;;12.73;;
15061;SDS011;7630;50.306;8.566;2023-04-24T18:39:08;15.93;;;14.63;;
15061;SDS011;7630;50.306;8.566;2023-04-24T18:43:09;15.03;;;13.70;;
15061;SDS011;7630;50.306;8.566;2023-04-24T18:47:10;17.00;;;13.13;;
15061;SDS011;7630;50.306;8.566;2023-04-24T18:51:12;13.63;;;12.43;;
15061;SDS011;7630;50.306;8.566;2023-04-24T18:55:13;14.30;;;13.00;;
15061;SDS011;7630;50.306;8.566;2023-04-24T18:59:14;19.17;;;17.50;;
15061;SDS011;7630;50.306;8.566;2023-04-24T19:03:15;19.23;;;16.60;;
15061;SDS011;7630;50.306;8.566;2023-04-24T19:07:16;16.17;;;14.60;;
15061;SDS011;7630;50.306;8.566;2023-04-24T19:11:19;17.43;;;15.60;;
15061;SDS011;7630;50.306;8.566;2023-04-24T19:15:22;15.17;;;13.87;;
15061;SDS011;7630;50.306;8.566;2023-04-24T19:19:23;13.80;;;11.87;;
15061;SDS011;7630;50.306;8.566;2023-04-24T19:23:25;14.30;;;12.30;;
15061;SDS011;7630;50.306;8.566;2023-04-24T19:27:27;16.50;;;14.97;;
15061;SDS011;7630;50.306;8.566;2023-04-24T19:31:28;21.50;;;19.70;;
15061;SDS011;7630;50.306;8.566;2023-04-24T19:35:29;15.70;;;14.20;;
15061;SDS011;7630;50.306;8.566;2023-04-24T19:39:30;17.27;;;15.60;;
15061;SDS011;7630;50.306;8.566;2023-04-24T19:43:32;17.53;;;15.83;;
15061;SDS011;7630;50.306;8.566;2023-04-24T19:47:33;16.30;;;14.60;;
15061;SDS011;7630;50.306;8.566;2023-04-24T19:51:34;17.40;;;15.80;;
15061;SDS011;7630;50.306;8.566;2023-04-24T19:55:36;16.17;;;14.47;;
15061;SDS011;7630;50.306;8.566;2023-04-24T19:59:37;16.40;;;14.90;;
15061;SDS011;7630;50.306;8.566;2023-04-24T20:03:38;19.20;;;17.33;;
15061;SDS011;7630;50.306;8.566;2023-04-24T20:07:39;16.07;;;14.57;;
15061;SDS011;7630;50.306;8.566;2023-04-24T20:11:41;16.33;;;14.83;;
15061;SDS011;7630;50.306;8.566;2023-04-24T20:15:43;15.20;;;13.70;;
15061;SDS011;7630;50.306;8.566;2023-04-24T20:19:44;17.23;;;15.43;;
15061;SDS011;7630;50.306;8.566;2023-04-24T20:23:46;16.37;;;13.70;;
15061;SDS011;7630;50.306;8.566;2023-04-24T20:27:47;16.70;;;15.20;;
15061;SDS011;7630;50.306;8.566;2023-04-24T20:31:49;15.87;;;14.33;;
15061;SDS011;7630;50.306;8.566;2023-04-24T20:35:50;17.07;;;15.43;;
15061;SDS011;7630;50.306;8.566;2023-04-24T20:39:52;16.03;;;14.43;;
15061;SDS011;7630;50.306;8.566;2023-04-24T20:43:53;16.47;;;14.77;;
15061;SDS011;7630;50.306;8.566;2023-04-24T20:47:54;15.50;;;14.10;;
15061;SDS011;7630;50.306;8.566;2023-04-24T20:51:55;15.60;;;14.10;;
15061;SDS011;7630;50.306;8.566;2023-04-24T20:55:58;15.03;;;13.53;;
15061;SDS011;7630;50.306;8.566;2023-04-24T20:59:59;16.23;;;14.73;;
15061;SDS011;7630;50.306;8.566;2023-04-24T21:04:00;16.87;;;15.17;;
15061;SDS011;7630;50.306;8.566;2023-04-24T21:08:01;17.57;;;15.93;;
15061;SDS011;7630;50.306;8.566;2023-04-24T21:12:02;15.77;;;14.37;;
15061;SDS011;7630;50.306;8.566;2023-04-24T21:16:04;14.00;;;12.80;;
15061;SDS011;7630;50.306;8.566;2023-04-24T21:20:06;17.23;;;13.43;;
15061;SDS011;7630;50.306;8.566;2023-04-24T21:24:08;15.50;;;13.87;;
15061;SDS011;7630;50.306;8.566;2023-04-24T21:28:09;15.40;;;14.10;;
15061;SDS011;7630;50.306;8.566;2023-04-24T21:32:10;14.50;;;13.13;;
15061;SDS011;7630;50.306;8.566;2023-04-24T21:36:12;14.67;;;13.20;;
15061;SDS011;7630;50.306;8.566;2023-04-24T21:40:13;15.70;;;14.20;;
15061;SDS011;7630;50.306;8.566;2023-04-24T21:44:15;15.70;;;14.27;;
15061;SDS011;7630;50.306;8.566;2023-04-24T21:48:16;14.23;;;13.00;;
15061;SDS011;7630;50.306;8.566;2023-04-24T21:52:17;13.57;;;12.37;;
15061;SDS011;7630;50.306;8.566;2023-04-24T21:56:18;15.00;;;13.50;;
15061;SDS011;7630;50.306;8.566;2023-04-24T22:00:19;13.40;;;12.10;;
15061;SDS011;7630;50.306;8.566;2023-04-24T22:04:21;14.10;;;12.70;;
15061;SDS011;7630;50.306;8.566;2023-04-24T22:08:23;15.33;;;13.73;;
15061;SDS011;7630;50.306;8.566;2023-04-24T22:12:24;15.67;;;14.17;;
15061;SDS011;7630;50.306;8.566;2023-04-24T22:16:25;14.83;;;13.43;;
15061;SDS011;7630;50.306;8.566;2023-04-24T22:20:28;17.10;;;15.60;;
15061;SDS011;7630;50.306;8.566;2023-04-24T22:24:30;15.90;;;14.50;;
15061;SDS011;7630;50.306;8.566;2023-04-24T22:28:31;17.13;;;14.23;;
15061;SDS011;7630;50.306;8.566;2023-04-24T22:32:32;17.80;;;16.00;;
15061;SDS011;7630;50.306;8.566;2023-04-24T22:36:34;17.10;;;15.23;;
15061;SDS011;7630;50.306;8.566;2023-04-24T22:40:35;23.37;;;20.73;;
15061;SDS011;7630;50.306;8.566;2023-04-24T22:44:36;21.00;;;18.87;;
15061;SDS011;7630;50.306;8.566;2023-04-24T22:48:37;19.70;;;17.73;;
15061;SDS011;7630;50.306;8.566;2023-04-24T22:52:39;19.90;;;17.83;;
15061;SDS011;7630;50.306;8.566;2023-04-24T22:56:41;20.63;;;18.43;;
15061;SDS011;7630;50.306;8.566;2023-04-24T23:00:42;31.73;;;23.67;;
15061;SDS011;7630;50.306;8.566;2023-04-24T23:04:44;20.37;;;18.27;;
15061;SDS011;7630;50.306;8.566;2023-04-24T23:08:45;19.50;;;17.40;;
15061;SDS011;7630;50.306;8.566;2023-04-24T23:12:46;19.70;;;17.70;;
15061;SDS011;7630;50.306;8.566;2023-04-24T23:16:47;20.53;;;17.70;;
15061;SDS011;7630;50.306;8.566;2023-04-24T23:20:48;20.13;;;18.13;;
15061;SDS011;7630;50.306;8.566;2023-04-24T23:24:50;19.30;;;17.30;;
15061;SDS011;7630;50.306;8.566;2023-04-24T23:28:51;23.40;;;19.17;;
15061;SDS011;7630;50.306;8.566;2023-04-24T23:32:53;20.73;;;18.53;;
15061;SDS011;7630;50.306;8.566;2023-04-24T23:36:54;22.23;;;19.60;;
15061;SDS011;7630;50.306;8.566;2023-04-24T23:40:55;21.93;;;19.50;;
15061;SDS011;7630;50.306;8.566;2023-04-24T23:44:56;22.40;;;20.10;;
15061;SDS011;7630;50.306;8.566;2023-04-24T23:48:57;22.30;;;20.03;;
15061;SDS011;7630;50.306;8.566;2023-04-24T23:52:58;23.53;;;21.20;;
15061;SDS011;7630;50.306;8.566;2023-04-24T23:57:00;24.03;;;20.50;;
